Sanko Independence — A8QJ9 — position and weather

sailwx.info

Track history (hours):
 
Tides and Currents Weather Stations Pressure Air Temp Water Temp Dewpoint Dewpoint Depression Visibility Wind Speed Wind Dir Waves Ship Positions

Sanko Independence

Last reported at 2015-Jan-28 09:34 UTC. Time now 2015-Feb-01 18:14 UTC.
Position N 36°00' W 005°14'.

Length 174 m; draft 7.1 m.

Type: Ship (hazmat cat C). MMSI: 636013946.

Date/timePositionNaut miles runAvg speedWind from/ knotsBaromVisibWave heightAir tempDewpointWater temp
2015-Jan-28 09:34N 36°00' W 005°14'2618.0
2015-Jan-28 08:08N 35°53' W 005°45'  
2015-Jan-25 13:28N 36°46' W 010°19'1516.2
2015-Jan-25 12:33N 37°00' W 010°23'1716.4
2015-Jan-25 11:33N 37°17' W 010°27'3616.2
2015-Jan-25 09:21N 37°52' W 010°35'1316.2
2015-Jan-25 08:33N 38°04' W 010°37'1616.1
2015-Jan-25 07:33N 38°20' W 010°41'76715.0
2015-Jan-23 04:33N 50°01' W 003°26'1716.7
2015-Jan-23 03:33N 50°18' W 003°26'10 9.9
2015-Jan-23 02:33N 50°25' W 003°15'1716.8
2015-Jan-23 01:33N 50°25' W 002°49'3015.1
2015-Jan-22 23:33N 50°25' W 002°01'1312.9
2015-Jan-22 22:33N 50°25' W 001°41'1211.9
2015-Jan-22 21:33N 50°25' W 001°22'1211.5
2015-Jan-22 20:33N 50°25' W 001°04'1413.1
2015-Jan-22 19:31N 50°26' W 000°43'1515.8
2015-Jan-22 18:33N 50°29' W 000°20'1717.0
2015-Jan-22 17:33N 50°33' E 000°07'1717.3
2015-Jan-22 16:34N 50°38' E 000°33'1616.3
2015-Jan-22 15:34N 50°46' E 000°55'1514.7
2015-Jan-22 14:34N 50°53' E 001°15'1312.6
2015-Jan-22 13:33N 51°02' E 001°29'1212.0
2015-Jan-22 12:33N 51°11' E 001°43'1414.1
2015-Jan-22 11:34N 51°23' E 001°55'1716.9
2015-Jan-22 10:34N 51°37' E 002°09'3917.5
2015-Jan-22 08:19N 52°11' E 002°40'1516.5
2015-Jan-22 07:25N 52°25' E 002°51'41314.6
2015-Jan-21 03:04N 57°50' E 010°16'816.0
2015-Jan-21 02:33N 57°50' E 010°31'1615.7
2015-Jan-21 01:33N 57°50' E 011°01'1414.1
2015-Jan-21 00:33N 57°52' E 011°27'1010.2
2015-Jan-20 23:34N 57°58' E 011°43'8 7.6
2015-Jan-20 22:33N 58°05' E 011°47'1 0.9
2015-Jan-20 21:30N 58°05' E 011°49'0 0.0
2015-Jan-20 20:30N 58°05' E 011°49'0 0.0
2015-Jan-20 19:06N 58°05' E 011°49'0 0.0
2015-Jan-20 18:27N 58°05' E 011°49'0 0.0
2015-Jan-20 17:33N 58°05' E 011°49'0 0.0
2015-Jan-20 16:12N 58°05' E 011°49'0 0.0
2015-Jan-20 14:30N 58°05' E 011°49'0 0.0
2015-Jan-20 13:33N 58°05' E 011°49'0 0.0
2015-Jan-20 12:12N 58°05' E 011°49'0 0.0
2015-Jan-20 11:18N 58°05' E 011°49'0 0.0
2015-Jan-20 10:24N 58°05' E 011°49'0 0.0
2015-Jan-20 09:22N 58°05' E 011°49'0 0.1
2015-Jan-20 08:33N 58°05' E 011°49'3 3.0
2015-Jan-20 07:33N 58°02' E 011°47'9 8.7
2015-Jan-20 06:33N 57°55' E 011°39'9 9.3
2015-Jan-20 05:33N 57°51' E 011°23'6 4.0
2015-Jan-20 04:09N 57°56' E 011°20'0 0.0
2015-Jan-20 03:24N 57°56' E 011°20'0 0.0
2015-Jan-20 02:21N 57°56' E 011°20'0 0.0
2015-Jan-20 01:30N 57°56' E 011°20'0 0.0
2015-Jan-20 00:33N 57°56' E 011°20'0 0.0
2015-Jan-19 23:33N 57°56' E 011°20'0 0.0
2015-Jan-19 22:33N 57°56' E 011°20'7 6.8
2015-Jan-19 21:34N 57°50' E 011°22'1515.1
2015-Jan-19 20:34N 57°36' E 011°32'4 4.3
2015-Jan-19 19:31N 57°35' E 011°40'0 0.0
2015-Jan-19 18:31N 57°35' E 011°40'0 0.0
2015-Jan-19 17:31N 57°35' E 011°40'2 2.0
2015-Jan-19 16:34N 57°34' E 011°38'1010.4
2015-Jan-19 15:34N 57°23' E 011°35'1515.5
2015-Jan-19 14:33N 57°08' E 011°40'1615.9
2015-Jan-19 13:33N 56°53' E 011°49'1414.4
2015-Jan-19 12:33N 56°39' E 011°47'12114.6
2015-Jan-19 04:15N 54°43' E 010°47'1014.6
2015-Jan-19 03:33N 54°36' E 010°60'1515.0
2015-Jan-19 02:33N 54°32' E 011°25'1515.0
2015-Jan-19 01:33N 54°27' E 011°49'1413.8
2015-Jan-19 00:33N 54°29' E 012°12'1110.7
2015-Jan-18 23:33N 54°39' E 012°19'1413.7
2015-Jan-18 22:33N 54°47' E 012°39'1514.9
2015-Jan-18 21:33N 54°52' E 013°03'1515.0
2015-Jan-18 20:33N 54°58' E 013°27'1414.1
2015-Jan-18 19:34N 55°03' E 013°50'1414.4
2015-Jan-18 18:34N 55°08' E 014°14'1414.3
2015-Jan-18 17:34N 55°15' E 014°35'1212.3
2015-Jan-18 16:33N 55°21' E 014°54'1414.4
2015-Jan-18 15:33N 55°31' E 015°13'1414.1
2015-Jan-18 14:33N 55°40' E 015°32'  
Track history (hours):
 
Tides and Currents Weather Stations Pressure Air Temp Water Temp Dewpoint Dewpoint Depression Visibility Wind Speed Wind Dir Waves Ship Positions

Sanko Independence

Last reported at 2015-Jan-28 09:34 UTC. Time now 2015-Feb-01 18:14 UTC.
Position N 36°00' W 005°14'.

Length 174 m; draft 7.1 m.

Type: Ship (hazmat cat C). MMSI: 636013946.

Date/timePositionNaut miles runAvg speedWind from/ knotsBaromVisibWave heightAir tempDewpointWater temp
2015-Jan-28 09:34N 36°00' W 005°14'2618.0
2015-Jan-28 08:08N 35°53' W 005°45'  
2015-Jan-25 13:28N 36°46' W 010°19'1516.2
2015-Jan-25 12:33N 37°00' W 010°23'1716.4
2015-Jan-25 11:33N 37°17' W 010°27'3616.2
2015-Jan-25 09:21N 37°52' W 010°35'1316.2
2015-Jan-25 08:33N 38°04' W 010°37'1616.1
2015-Jan-25 07:33N 38°20' W 010°41'76715.0
2015-Jan-23 04:33N 50°01' W 003°26'1716.7
2015-Jan-23 03:33N 50°18' W 003°26'10 9.9
2015-Jan-23 02:33N 50°25' W 003°15'1716.8
2015-Jan-23 01:33N 50°25' W 002°49'3015.1
2015-Jan-22 23:33N 50°25' W 002°01'1312.9
2015-Jan-22 22:33N 50°25' W 001°41'1211.9
2015-Jan-22 21:33N 50°25' W 001°22'1211.5
2015-Jan-22 20:33N 50°25' W 001°04'1413.1
2015-Jan-22 19:31N 50°26' W 000°43'1515.8
2015-Jan-22 18:33N 50°29' W 000°20'1717.0
2015-Jan-22 17:33N 50°33' E 000°07'1717.3
2015-Jan-22 16:34N 50°38' E 000°33'1616.3
2015-Jan-22 15:34N 50°46' E 000°55'1514.7
2015-Jan-22 14:34N 50°53' E 001°15'1312.6
2015-Jan-22 13:33N 51°02' E 001°29'1212.0
2015-Jan-22 12:33N 51°11' E 001°43'1414.1
2015-Jan-22 11:34N 51°23' E 001°55'1716.9
2015-Jan-22 10:34N 51°37' E 002°09'3917.5
2015-Jan-22 08:19N 52°11' E 002°40'1516.5
2015-Jan-22 07:25N 52°25' E 002°51'41314.6
2015-Jan-21 03:04N 57°50' E 010°16'816.0
2015-Jan-21 02:33N 57°50' E 010°31'1615.7
2015-Jan-21 01:33N 57°50' E 011°01'1414.1
2015-Jan-21 00:33N 57°52' E 011°27'1010.2
2015-Jan-20 23:34N 57°58' E 011°43'8 7.6
2015-Jan-20 22:33N 58°05' E 011°47'1 0.9
2015-Jan-20 21:30N 58°05' E 011°49'0 0.0
2015-Jan-20 20:30N 58°05' E 011°49'0 0.0
2015-Jan-20 19:06N 58°05' E 011°49'0 0.0
2015-Jan-20 18:27N 58°05' E 011°49'0 0.0
2015-Jan-20 17:33N 58°05' E 011°49'0 0.0
2015-Jan-20 16:12N 58°05' E 011°49'0 0.0
2015-Jan-20 14:30N 58°05' E 011°49'0 0.0
2015-Jan-20 13:33N 58°05' E 011°49'0 0.0
2015-Jan-20 12:12N 58°05' E 011°49'0 0.0
2015-Jan-20 11:18N 58°05' E 011°49'0 0.0
2015-Jan-20 10:24N 58°05' E 011°49'0 0.0
2015-Jan-20 09:22N 58°05' E 011°49'0 0.1
2015-Jan-20 08:33N 58°05' E 011°49'3 3.0
2015-Jan-20 07:33N 58°02' E 011°47'9 8.7
2015-Jan-20 06:33N 57°55' E 011°39'9 9.3
2015-Jan-20 05:33N 57°51' E 011°23'6 4.0
2015-Jan-20 04:09N 57°56' E 011°20'0 0.0
2015-Jan-20 03:24N 57°56' E 011°20'0 0.0
2015-Jan-20 02:21N 57°56' E 011°20'0 0.0
2015-Jan-20 01:30N 57°56' E 011°20'0 0.0
2015-Jan-20 00:33N 57°56' E 011°20'0 0.0
2015-Jan-19 23:33N 57°56' E 011°20'0 0.0
2015-Jan-19 22:33N 57°56' E 011°20'7 6.8
2015-Jan-19 21:34N 57°50' E 011°22'1515.1
2015-Jan-19 20:34N 57°36' E 011°32'4 4.3
2015-Jan-19 19:31N 57°35' E 011°40'0 0.0
2015-Jan-19 18:31N 57°35' E 011°40'0 0.0
2015-Jan-19 17:31N 57°35' E 011°40'2 2.0
2015-Jan-19 16:34N 57°34' E 011°38'1010.4
2015-Jan-19 15:34N 57°23' E 011°35'1515.5
2015-Jan-19 14:33N 57°08' E 011°40'1615.9
2015-Jan-19 13:33N 56°53' E 011°49'1414.4
2015-Jan-19 12:33N 56°39' E 011°47'12114.6
2015-Jan-19 04:15N 54°43' E 010°47'1014.6
2015-Jan-19 03:33N 54°36' E 010°60'1515.0
2015-Jan-19 02:33N 54°32' E 011°25'1515.0
2015-Jan-19 01:33N 54°27' E 011°49'1413.8
2015-Jan-19 00:33N 54°29' E 012°12'1110.7
2015-Jan-18 23:33N 54°39' E 012°19'1413.7
2015-Jan-18 22:33N 54°47' E 012°39'1514.9
2015-Jan-18 21:33N 54°52' E 013°03'1515.0
2015-Jan-18 20:33N 54°58' E 013°27'1414.1
2015-Jan-18 19:34N 55°03' E 013°50'1414.4
2015-Jan-18 18:34N 55°08' E 014°14'1414.3
2015-Jan-18 17:34N 55°15' E 014°35'1212.3
2015-Jan-18 16:33N 55°21' E 014°54'1414.4
2015-Jan-18 15:33N 55°31' E 015°13'1414.1
2015-Jan-18 14:33N 55°40' E 015°32'  

Dump ship's entire track history